sensor_id;sensor_type;location;lat;lon;timestamp;pressure;altitude;pressure_sealevel;temperature;humidity
40502;BME280;29631;49.168;9.848;2023-04-10T00:02:25;97281.34;;;11.99;70.67
40502;BME280;29631;49.168;9.848;2023-04-10T00:04:51;97263.41;;;11.88;70.56
40502;BME280;29631;49.168;9.848;2023-04-10T00:07:17;97289.06;;;12.01;70.51
40502;BME280;29631;49.168;9.848;2023-04-10T00:09:43;97278.47;;;11.94;70.61
40502;BME280;29631;49.168;9.848;2023-04-10T00:12:08;97296.78;;;12.02;70.55
40502;BME280;29631;49.168;9.848;2023-04-10T00:14:36;97295.94;;;11.95;70.78
40502;BME280;29631;49.168;9.848;2023-04-10T00:17:02;97221.81;;;11.57;70.97
40502;BME280;29631;49.168;9.848;2023-04-10T00:19:27;97275.59;;;11.89;70.92
40502;BME280;29631;49.168;9.848;2023-04-10T00:21:56;97274.38;;;11.92;71.04
40502;BME280;29631;49.168;9.848;2023-04-10T00:24:21;97290.06;;;12.00;71.67
40502;BME280;29631;49.168;9.848;2023-04-10T00:26:47;97270.94;;;11.91;71.00
40502;BME280;29631;49.168;9.848;2023-04-10T00:29:13;97246.69;;;11.81;70.54
40502;BME280;29631;49.168;9.848;2023-04-10T00:31:39;97272.16;;;11.95;70.40
40502;BME280;29631;49.168;9.848;2023-04-10T00:34:05;97255.28;;;11.90;70.27
40502;BME280;29631;49.168;9.848;2023-04-10T00:36:31;97279.72;;;11.98;71.40
40502;BME280;29631;49.168;9.848;2023-04-10T00:38:57;97200.28;;;11.53;71.20
40502;BME280;29631;49.168;9.848;2023-04-10T00:41:24;97262.00;;;11.92;70.04
40502;BME280;29631;49.168;9.848;2023-04-10T00:43:55;97217.22;;;11.71;70.61
40502;BME280;29631;49.168;9.848;2023-04-10T00:46:22;97237.97;;;11.81;71.27
40502;BME280;29631;49.168;9.848;2023-04-10T00:48:49;97256.94;;;11.97;71.45
40502;BME280;29631;49.168;9.848;2023-04-10T00:51:15;97243.69;;;11.84;70.15
40502;BME280;29631;49.168;9.848;2023-04-10T00:53:41;97238.78;;;11.75;71.35
40502;BME280;29631;49.168;9.848;2023-04-10T00:56:07;97260.38;;;11.91;71.16
40502;BME280;29631;49.168;9.848;2023-04-10T00:58:33;97254.25;;;11.84;71.09
40502;BME280;29631;49.168;9.848;2023-04-10T01:00:58;97241.47;;;11.88;70.29
40502;BME280;29631;49.168;9.848;2023-04-10T01:03:24;97258.53;;;11.92;70.46
40502;BME280;29631;49.168;9.848;2023-04-10T01:09:29;97255.72;;;11.93;70.49
40502;BME280;29631;49.168;9.848;2023-04-10T01:12:14;97252.25;;;11.86;70.93
40502;BME280;29631;49.168;9.848;2023-04-10T01:20:37;97249.34;;;11.81;71.30
40502;BME280;29631;49.168;9.848;2023-04-10T01:26:10;97248.53;;;11.74;70.95
40502;BME280;29631;49.168;9.848;2023-04-10T01:31:41;97258.47;;;11.79;70.83
40502;BME280;29631;49.168;9.848;2023-04-10T01:34:20;97245.91;;;11.74;70.33
40502;BME280;29631;49.168;9.848;2023-04-10T01:36:53;97251.78;;;11.76;70.09
40502;BME280;29631;49.168;9.848;2023-04-10T01:39:21;97250.56;;;11.72;70.54
40502;BME280;29631;49.168;9.848;2023-04-10T01:41:51;97238.13;;;11.66;71.47
40502;BME280;29631;49.168;9.848;2023-04-10T01:44:22;97268.25;;;11.78;71.46
40502;BME280;29631;49.168;9.848;2023-04-10T01:46:52;97248.53;;;11.74;70.47
40502;BME280;29631;49.168;9.848;2023-04-10T01:49:19;97243.41;;;11.66;70.78
40502;BME280;29631;49.168;9.848;2023-04-10T01:51:46;97199.59;;;11.38;70.97
40502;BME280;29631;49.168;9.848;2023-04-10T01:54:12;97207.69;;;11.37;71.21
40502;BME280;29631;49.168;9.848;2023-04-10T01:56:38;97262.13;;;11.71;71.39
40502;BME280;29631;49.168;9.848;2023-04-10T01:59:06;97247.06;;;11.65;71.37
40502;BME280;29631;49.168;9.848;2023-04-10T02:01:31;97283.69;;;11.75;70.85
40502;BME280;29631;49.168;9.848;2023-04-10T02:03:59;97244.59;;;11.57;70.59
40502;BME280;29631;49.168;9.848;2023-04-10T02:07:05;97267.41;;;11.71;71.62
40502;BME280;29631;49.168;9.848;2023-04-10T02:10:21;97256.41;;;11.61;71.41
40502;BME280;29631;49.168;9.848;2023-04-10T02:12:58;97237.44;;;11.52;70.59
40502;BME280;29631;49.168;9.848;2023-04-10T02:15:27;97258.00;;;11.62;72.05
40502;BME280;29631;49.168;9.848;2023-04-10T02:17:55;97247.84;;;11.59;70.79
40502;BME280;29631;49.168;9.848;2023-04-10T02:20:23;97247.63;;;11.55;70.83
40502;BME280;29631;49.168;9.848;2023-04-10T02:22:50;97254.34;;;11.63;71.61
40502;BME280;29631;49.168;9.848;2023-04-10T02:25:17;97244.22;;;11.60;71.15
40502;BME280;29631;49.168;9.848;2023-04-10T02:27:43;97213.53;;;11.26;70.70
40502;BME280;29631;49.168;9.848;2023-04-10T02:30:09;97263.91;;;11.64;70.63
40502;BME280;29631;49.168;9.848;2023-04-10T02:32:35;97245.00;;;11.55;71.35
40502;BME280;29631;49.168;9.848;2023-04-10T02:35:02;97253.50;;;11.57;70.33
40502;BME280;29631;49.168;9.848;2023-04-10T02:37:29;97225.00;;;11.46;70.84
40502;BME280;29631;49.168;9.848;2023-04-10T02:39:55;97243.09;;;11.49;70.59
40502;BME280;29631;49.168;9.848;2023-04-10T02:42:20;97183.44;;;11.14;70.60
40502;BME280;29631;49.168;9.848;2023-04-10T02:44:47;97244.13;;;11.48;70.53
40502;BME280;29631;49.168;9.848;2023-04-10T02:47:13;97258.38;;;11.53;70.91
40502;BME280;29631;49.168;9.848;2023-04-10T02:49:39;97240.22;;;11.44;71.64
40502;BME280;29631;49.168;9.848;2023-04-10T02:52:05;97244.69;;;11.43;70.23
40502;BME280;29631;49.168;9.848;2023-04-10T02:54:31;97187.47;;;11.10;71.00
40502;BME280;29631;49.168;9.848;2023-04-10T02:56:58;97192.28;;;11.00;71.08
40502;BME280;29631;49.168;9.848;2023-04-10T02:59:24;97187.69;;;11.15;71.07
40502;BME280;29631;49.168;9.848;2023-04-10T03:01:50;97221.66;;;11.31;70.34
40502;BME280;29631;49.168;9.848;2023-04-10T03:04:18;97229.84;;;11.42;71.35
40502;BME280;29631;49.168;9.848;2023-04-10T03:06:45;97138.38;;;10.82;70.57
40502;BME280;29631;49.168;9.848;2023-04-10T03:09:10;97213.50;;;11.19;70.58
40502;BME280;29631;49.168;9.848;2023-04-10T03:11:36;97226.94;;;11.31;71.52
40502;BME280;29631;49.168;9.848;2023-04-10T03:14:03;97219.63;;;11.26;71.43
40502;BME280;29631;49.168;9.848;2023-04-10T03:16:29;97240.56;;;11.34;71.48
40502;BME280;29631;49.168;9.848;2023-04-10T03:18:55;97231.38;;;11.24;71.13
40502;BME280;29631;49.168;9.848;2023-04-10T03:21:21;97228.13;;;11.22;71.13
40502;BME280;29631;49.168;9.848;2023-04-10T03:23:47;97220.38;;;11.14;70.70
40502;BME280;29631;49.168;9.848;2023-04-10T03:26:12;97221.38;;;11.13;70.62
40502;BME280;29631;49.168;9.848;2023-04-10T03:28:38;97222.38;;;11.12;71.22
40502;BME280;29631;49.168;9.848;2023-04-10T03:31:05;97231.78;;;11.21;71.43
40502;BME280;29631;49.168;9.848;2023-04-10T03:33:31;97231.97;;;11.19;71.28
40502;BME280;29631;49.168;9.848;2023-04-10T03:35:57;97230.16;;;11.20;71.83
40502;BME280;29631;49.168;9.848;2023-04-10T03:38:23;97229.09;;;11.14;70.79
40502;BME280;29631;49.168;9.848;2023-04-10T03:40:49;97219.50;;;11.07;72.01
40502;BME280;29631;49.168;9.848;2023-04-10T03:43:14;97242.09;;;11.16;71.55
40502;BME280;29631;49.168;9.848;2023-04-10T03:45:40;97224.78;;;11.07;72.32
40502;BME280;29631;49.168;9.848;2023-04-10T03:48:07;97182.63;;;10.80;71.46
40502;BME280;29631;49.168;9.848;2023-04-10T03:50:32;97235.19;;;11.15;71.19
40502;BME280;29631;49.168;9.848;2023-04-10T03:52:59;97219.13;;;11.10;71.50
40502;BME280;29631;49.168;9.848;2023-04-10T03:55:25;97222.00;;;11.15;71.27
40502;BME280;29631;49.168;9.848;2023-04-10T03:57:51;97200.97;;;10.94;71.12
40502;BME280;29631;49.168;9.848;2023-04-10T04:00:17;97184.41;;;10.79;71.09
40502;BME280;29631;49.168;9.848;2023-04-10T04:02:42;97187.88;;;10.80;71.24
40502;BME280;29631;49.168;9.848;2023-04-10T04:05:08;97224.50;;;10.95;71.71
40502;BME280;29631;49.168;9.848;2023-04-10T04:07:34;97232.63;;;10.94;71.97
40502;BME280;29631;49.168;9.848;2023-04-10T04:10:00;97203.28;;;10.76;70.84
40502;BME280;29631;49.168;9.848;2023-04-10T04:12:26;97221.34;;;10.79;71.04
40502;BME280;29631;49.168;9.848;2023-04-10T04:14:52;97208.69;;;10.68;71.89
40502;BME280;29631;49.168;9.848;2023-04-10T04:17:18;97236.94;;;10.74;70.83
40502;BME280;29631;49.168;9.848;2023-04-10T04:19:44;97214.09;;;10.60;70.95
40502;BME280;29631;49.168;9.848;2023-04-10T04:22:14;97241.97;;;10.69;70.80
40502;BME280;29631;49.168;9.848;2023-04-10T04:24:39;97210.91;;;10.44;70.60
40502;BME280;29631;49.168;9.848;2023-04-10T04:27:06;97226.41;;;10.53;71.67
40502;BME280;29631;49.168;9.848;2023-04-10T04:29:32;97159.06;;;10.03;71.50
40502;BME280;29631;49.168;9.848;2023-04-10T04:31:58;97199.03;;;10.27;71.54
40502;BME280;29631;49.168;9.848;2023-04-10T04:34:23;97238.38;;;10.56;71.52
40502;BME280;29631;49.168;9.848;2023-04-10T04:36:49;97208.88;;;10.39;70.71
40502;BME280;29631;49.168;9.848;2023-04-10T04:39:15;97226.56;;;10.45;71.16
40502;BME280;29631;49.168;9.848;2023-04-10T04:41:41;97222.28;;;10.44;71.48
40502;BME280;29631;49.168;9.848;2023-04-10T04:44:06;97233.72;;;10.51;71.16
40502;BME280;29631;49.168;9.848;2023-04-10T04:46:32;97224.69;;;10.39;71.80
40502;BME280;29631;49.168;9.848;2023-04-10T04:48:58;97211.25;;;10.34;71.97
40502;BME280;29631;49.168;9.848;2023-04-10T04:51:24;97202.66;;;10.26;71.05
40502;BME280;29631;49.168;9.848;2023-04-10T04:53:50;97189.44;;;10.19;72.13
40502;BME280;29631;49.168;9.848;2023-04-10T04:56:15;97224.84;;;10.38;71.65
40502;BME280;29631;49.168;9.848;2023-04-10T04:58:41;97201.41;;;10.22;71.59
40502;BME280;29631;49.168;9.848;2023-04-10T05:01:07;97157.72;;;9.92;70.64
40502;BME280;29631;49.168;9.848;2023-04-10T05:03:33;97234.78;;;10.36;71.23
40502;BME280;29631;49.168;9.848;2023-04-10T05:05:59;97186.50;;;10.08;71.41
40502;BME280;29631;49.168;9.848;2023-04-10T05:08:24;97214.88;;;10.33;71.51
40502;BME280;29631;49.168;9.848;2023-04-10T05:10:50;97214.88;;;10.33;71.23
40502;BME280;29631;49.168;9.848;2023-04-10T05:13:17;97215.75;;;10.40;72.03
40502;BME280;29631;49.168;9.848;2023-04-10T05:15:43;97208.47;;;10.42;72.16
40502;BME280;29631;49.168;9.848;2023-04-10T05:18:09;97206.84;;;10.41;71.63
40502;BME280;29631;49.168;9.848;2023-04-10T05:20:36;97191.44;;;10.38;72.61
40502;BME280;29631;49.168;9.848;2023-04-10T05:23:02;97189.78;;;10.37;71.67
40502;BME280;29631;49.168;9.848;2023-04-10T05:25:28;97193.31;;;10.44;72.59
40502;BME280;29631;49.168;9.848;2023-04-10T05:27:53;97190.66;;;10.44;71.92
40502;BME280;29631;49.168;9.848;2023-04-10T05:30:19;97211.47;;;10.60;72.62
40502;BME280;29631;49.168;9.848;2023-04-10T05:32:45;97198.03;;;10.55;71.89
40502;BME280;29631;49.168;9.848;2023-04-10T05:35:11;97207.81;;;10.61;72.03
40502;BME280;29631;49.168;9.848;2023-04-10T05:37:37;97191.22;;;10.61;72.40
40502;BME280;29631;49.168;9.848;2023-04-10T05:40:03;97185.50;;;10.57;72.79
40502;BME280;29631;49.168;9.848;2023-04-10T05:42:29;97197.16;;;10.69;71.97
40502;BME280;29631;49.168;9.848;2023-04-10T05:44:55;97194.09;;;10.72;72.55
40502;BME280;29631;49.168;9.848;2023-04-10T05:47:21;97161.03;;;10.42;72.62
40502;BME280;29631;49.168;9.848;2023-04-10T05:49:47;97221.84;;;10.89;73.22
40502;BME280;29631;49.168;9.848;2023-04-10T05:52:12;97232.03;;;10.98;72.62
40502;BME280;29631;49.168;9.848;2023-04-10T05:54:38;97242.69;;;11.11;72.90
40502;BME280;29631;49.168;9.848;2023-04-10T05:57:04;97241.06;;;11.17;72.48
40502;BME280;29631;49.168;9.848;2023-04-10T05:59:29;97217.44;;;11.02;72.70
40502;BME280;29631;49.168;9.848;2023-04-10T06:01:56;97227.66;;;11.12;72.58
40502;BME280;29631;49.168;9.848;2023-04-10T06:04:22;97261.88;;;11.33;73.49
40502;BME280;29631;49.168;9.848;2023-04-10T06:06:48;97250.56;;;11.39;73.19
40502;BME280;29631;49.168;9.848;2023-04-10T06:09:14;97234.88;;;11.31;73.75
40502;BME280;29631;49.168;9.848;2023-04-10T06:11:40;97253.03;;;11.47;73.11
40502;BME280;29631;49.168;9.848;2023-04-10T06:14:06;97247.00;;;11.53;73.67
40502;BME280;29631;49.168;9.848;2023-04-10T06:16:31;97231.16;;;11.53;74.13
40502;BME280;29631;49.168;9.848;2023-04-10T06:18:57;97228.75;;;11.57;73.57
40502;BME280;29631;49.168;9.848;2023-04-10T06:21:23;97212.91;;;11.57;74.36
40502;BME280;29631;49.168;9.848;2023-04-10T06:23:49;97238.97;;;11.73;74.96
40502;BME280;29631;49.168;9.848;2023-04-10T06:26:15;97224.34;;;11.71;73.80
40502;BME280;29631;49.168;9.848;2023-04-10T06:28:41;97236.38;;;11.86;74.22
40502;BME280;29631;49.168;9.848;2023-04-10T06:31:07;97230.47;;;11.91;74.25
40502;BME280;29631;49.168;9.848;2023-04-10T06:33:33;97226.03;;;11.91;74.52
40502;BME280;29631;49.168;9.848;2023-04-10T06:36:02;97226.88;;;11.98;74.04
40502;BME280;29631;49.168;9.848;2023-04-10T06:38:29;97228.91;;;12.03;73.78
40502;BME280;29631;49.168;9.848;2023-04-10T06:40:55;97208.56;;;12.03;74.46
40502;BME280;29631;49.168;9.848;2023-04-10T06:43:20;97222.63;;;12.10;73.88
40502;BME280;29631;49.168;9.848;2023-04-10T06:45:46;97227.31;;;12.15;74.34
40502;BME280;29631;49.168;9.848;2023-04-10T06:48:12;97210.63;;;12.14;74.37
40502;BME280;29631;49.168;9.848;2023-04-10T06:50:38;97206.97;;;12.15;74.15
40502;BME280;29631;49.168;9.848;2023-04-10T06:53:04;97187.88;;;12.13;74.21
40502;BME280;29631;49.168;9.848;2023-04-10T06:55:30;97211.88;;;12.31;74.37
40502;BME280;29631;49.168;9.848;2023-04-10T06:57:55;97208.22;;;12.32;74.43
40502;BME280;29631;49.168;9.848;2023-04-10T07:00:22;97212.91;;;12.43;75.25
40502;BME280;29631;49.168;9.848;2023-04-10T07:02:48;97229.00;;;12.54;74.46
40502;BME280;29631;49.168;9.848;2023-04-10T07:05:14;97221.06;;;12.61;75.16
40502;BME280;29631;49.168;9.848;2023-04-10T07:07:41;97226.16;;;12.69;74.97
40502;BME280;29631;49.168;9.848;2023-04-10T07:10:07;97207.03;;;12.73;74.83
40502;BME280;29631;49.168;9.848;2023-04-10T07:12:33;97210.28;;;12.88;74.56
40502;BME280;29631;49.168;9.848;2023-04-10T07:14:59;97216.00;;;12.98;75.09
40502;BME280;29631;49.168;9.848;2023-04-10T07:17:25;97216.38;;;13.08;75.46
40502;BME280;29631;49.168;9.848;2023-04-10T07:19:51;97215.34;;;13.15;74.54
40502;BME280;29631;49.168;9.848;2023-04-10T07:22:16;97206.16;;;13.24;74.92
40502;BME280;29631;49.168;9.848;2023-04-10T07:24:42;97213.47;;;13.29;74.93
40502;BME280;29631;49.168;9.848;2023-04-10T07:27:08;97200.41;;;13.34;75.46
40502;BME280;29631;49.168;9.848;2023-04-10T07:29:34;97210.78;;;13.48;74.67
40502;BME280;29631;49.168;9.848;2023-04-10T07:32:00;97186.56;;;13.38;74.89
40502;BME280;29631;49.168;9.848;2023-04-10T07:34:26;97189.03;;;13.33;75.02
40502;BME280;29631;49.168;9.848;2023-04-10T07:36:52;97208.09;;;13.61;74.91
40502;BME280;29631;49.168;9.848;2023-04-10T07:39:17;97206.63;;;13.65;74.75
40502;BME280;29631;49.168;9.848;2023-04-10T07:41:43;97209.22;;;13.78;74.45
40502;BME280;29631;49.168;9.848;2023-04-10T07:44:09;97227.09;;;13.89;74.89
40502;BME280;29631;49.168;9.848;2023-04-10T07:46:35;97216.16;;;13.79;74.94
40502;BME280;29631;49.168;9.848;2023-04-10T07:49:01;97213.22;;;14.00;74.46
40502;BME280;29631;49.168;9.848;2023-04-10T07:51:27;97230.28;;;14.17;74.59
40502;BME280;29631;49.168;9.848;2023-04-10T07:53:53;97227.78;;;14.22;74.79
40502;BME280;29631;49.168;9.848;2023-04-10T07:56:20;97216.31;;;14.28;74.15
40502;BME280;29631;49.168;9.848;2023-04-10T07:58:46;97205.06;;;14.32;74.63
40502;BME280;29631;49.168;9.848;2023-04-10T08:01:13;97216.19;;;14.47;74.87
40502;BME280;29631;49.168;9.848;2023-04-10T08:03:44;97228.53;;;14.59;74.75
40502;BME280;29631;49.168;9.848;2023-04-10T08:06:11;97197.16;;;14.56;74.45
40502;BME280;29631;49.168;9.848;2023-04-10T08:08:38;97202.63;;;14.61;74.04
40502;BME280;29631;49.168;9.848;2023-04-10T08:13:59;97212.47;;;14.79;73.55
40502;BME280;29631;49.168;9.848;2023-04-10T08:16:33;97196.59;;;14.72;73.53
40502;BME280;29631;49.168;9.848;2023-04-10T08:19:00;97215.66;;;14.87;73.52
40502;BME280;29631;49.168;9.848;2023-04-10T08:21:28;97196.31;;;14.80;73.62
40502;BME280;29631;49.168;9.848;2023-04-10T08:23:56;97209.22;;;15.01;73.36
40502;BME280;29631;49.168;9.848;2023-04-10T08:26:22;97207.09;;;15.10;73.89
40502;BME280;29631;49.168;9.848;2023-04-10T08:28:50;97189.09;;;15.12;72.89
40502;BME280;29631;49.168;9.848;2023-04-10T08:31:18;97216.50;;;15.30;73.03
40502;BME280;29631;49.168;9.848;2023-04-10T08:33:44;97208.84;;;15.40;72.90
40502;BME280;29631;49.168;9.848;2023-04-10T08:36:10;97202.66;;;15.46;72.80
40502;BME280;29631;49.168;9.848;2023-04-10T08:38:40;97200.28;;;15.56;72.78
40502;BME280;29631;49.168;9.848;2023-04-10T08:41:09;97213.56;;;15.74;73.54
40502;BME280;29631;49.168;9.848;2023-04-10T08:43:35;97184.41;;;15.67;72.64
40502;BME280;29631;49.168;9.848;2023-04-10T08:46:01;97188.75;;;15.80;73.16
40502;BME280;29631;49.168;9.848;2023-04-10T08:48:55;97215.81;;;16.06;72.52
40502;BME280;29631;49.168;9.848;2023-04-10T08:51:31;97198.56;;;16.08;72.58
40502;BME280;29631;49.168;9.848;2023-04-10T08:54:06;97195.13;;;16.19;73.38
40502;BME280;29631;49.168;9.848;2023-04-10T08:56:34;97191.75;;;16.30;72.87
40502;BME280;29631;49.168;9.848;2023-04-10T08:59:04;97183.91;;;16.35;73.19
40502;BME280;29631;49.168;9.848;2023-04-10T09:01:30;97167.63;;;16.43;73.10
40502;BME280;29631;49.168;9.848;2023-04-10T09:03:56;97186.59;;;16.58;72.88
40502;BME280;29631;49.168;9.848;2023-04-10T09:06:22;97169.16;;;16.62;73.25
40502;BME280;29631;49.168;9.848;2023-04-10T09:08:48;97174.25;;;16.75;72.96
40502;BME280;29631;49.168;9.848;2023-04-10T09:11:14;97166.03;;;16.76;72.30
40502;BME280;29631;49.168;9.848;2023-04-10T09:13:42;97156.66;;;16.74;72.83
40502;BME280;29631;49.168;9.848;2023-04-10T09:16:10;97178.44;;;16.94;72.61
40502;BME280;29631;49.168;9.848;2023-04-10T09:18:49;97179.13;;;17.01;72.42
40502;BME280;29631;49.168;9.848;2023-04-10T09:21:20;97160.13;;;17.09;72.17
40502;BME280;29631;49.168;9.848;2023-04-10T09:23:48;97141.34;;;17.04;72.54
40502;BME280;29631;49.168;9.848;2023-04-10T09:26:25;97170.09;;;17.36;71.35
40502;BME280;29631;49.168;9.848;2023-04-10T09:28:59;97172.16;;;17.46;72.02
40502;BME280;29631;49.168;9.848;2023-04-10T09:31:34;97162.66;;;17.49;72.22
40502;BME280;29631;49.168;9.848;2023-04-10T09:34:16;97162.38;;;17.62;71.98
40502;BME280;29631;49.168;9.848;2023-04-10T09:36:50;97149.63;;;17.64;71.70
40502;BME280;29631;49.168;9.848;2023-04-10T09:39:17;97149.34;;;17.77;71.79
40502;BME280;29631;49.168;9.848;2023-04-10T09:42:01;97145.66;;;17.78;71.94
40502;BME280;29631;49.168;9.848;2023-04-10T09:44:35;97156.25;;;17.90;71.49
40502;BME280;29631;49.168;9.848;2023-04-10T09:49:55;97135.38;;;17.98;71.19
40502;BME280;29631;49.168;9.848;2023-04-10T09:52:27;97137.63;;;18.06;71.52
40502;BME280;29631;49.168;9.848;2023-04-10T09:55:04;97125.06;;;18.18;71.53
40502;BME280;29631;49.168;9.848;2023-04-10T09:57:33;97136.91;;;18.22;70.79
40502;BME280;29631;49.168;9.848;2023-04-10T10:00:04;97144.03;;;18.33;70.71
40502;BME280;29631;49.168;9.848;2023-04-10T10:02:35;97128.50;;;18.30;69.67
40502;BME280;29631;49.168;9.848;2023-04-10T10:05:04;97106.47;;;18.23;69.77
40502;BME280;29631;49.168;9.848;2023-04-10T10:07:30;97128.66;;;18.40;69.68
40502;BME280;29631;49.168;9.848;2023-04-10T10:09:57;97114.84;;;18.43;70.15
40502;BME280;29631;49.168;9.848;2023-04-10T10:12:31;97087.56;;;18.41;69.87
40502;BME280;29631;49.168;9.848;2023-04-10T10:20:58;97091.44;;;18.66;69.65
40502;BME280;29631;49.168;9.848;2023-04-10T10:23:25;97069.44;;;18.59;69.12
40502;BME280;29631;49.168;9.848;2023-04-10T10:25:53;97087.53;;;18.74;68.55
40502;BME280;29631;49.168;9.848;2023-04-10T10:28:20;97074.19;;;18.74;68.93
40502;BME280;29631;49.168;9.848;2023-04-10T10:30:47;97067.06;;;18.79;68.84
40502;BME280;29631;49.168;9.848;2023-04-10T10:33:16;97087.31;;;18.96;68.55
40502;BME280;29631;49.168;9.848;2023-04-10T10:35:43;97064.84;;;18.92;68.21
40502;BME280;29631;49.168;9.848;2023-04-10T10:38:09;97056.41;;;19.00;68.12
40502;BME280;29631;49.168;9.848;2023-04-10T10:40:56;97069.50;;;19.18;67.57
40502;BME280;29631;49.168;9.848;2023-04-10T10:43:44;97056.22;;;19.28;67.69
40502;BME280;29631;49.168;9.848;2023-04-10T10:46:36;97025.41;;;19.21;68.26
40502;BME280;29631;49.168;9.848;2023-04-10T10:49:05;97049.41;;;19.37;68.54
40502;BME280;29631;49.168;9.848;2023-04-10T10:51:50;97054.38;;;19.50;68.01
40502;BME280;29631;49.168;9.848;2023-04-10T10:54:33;97045.84;;;19.53;67.50
40502;BME280;29631;49.168;9.848;2023-04-10T10:57:01;97041.09;;;19.60;68.21
40502;BME280;29631;49.168;9.848;2023-04-10T11:02:18;97044.34;;;19.88;68.23
40502;BME280;29631;49.168;9.848;2023-04-10T11:04:47;97036.06;;;19.90;68.01
40502;BME280;29631;49.168;9.848;2023-04-10T11:07:14;97040.44;;;19.96;67.89
40502;BME280;29631;49.168;9.848;2023-04-10T11:09:50;97042.13;;;20.07;67.53
40502;BME280;29631;49.168;9.848;2023-04-10T11:12:23;97009.41;;;20.00;66.78
40502;BME280;29631;49.168;9.848;2023-04-10T11:15:03;97022.44;;;20.18;66.54
40502;BME280;29631;49.168;9.848;2023-04-10T11:17:49;97032.63;;;20.21;65.64
40502;BME280;29631;49.168;9.848;2023-04-10T11:20:19;97006.78;;;20.05;66.23
40502;BME280;29631;49.168;9.848;2023-04-10T11:23:10;97005.69;;;20.06;65.90
40502;BME280;29631;49.168;9.848;2023-04-10T11:25:50;97019.38;;;20.09;65.58
40502;BME280;29631;49.168;9.848;2023-04-10T11:31:18;97009.69;;;20.03;64.96
40502;BME280;29631;49.168;9.848;2023-04-10T11:34:05;97006.25;;;20.08;64.90
40502;BME280;29631;49.168;9.848;2023-04-10T11:36:34;96996.63;;;20.07;65.51
40502;BME280;29631;49.168;9.848;2023-04-10T11:39:11;96999.31;;;20.12;65.15
40502;BME280;29631;49.168;9.848;2023-04-10T11:41:44;97018.66;;;20.19;65.22
40502;BME280;29631;49.168;9.848;2023-04-10T11:46:45;96998.19;;;20.03;64.55
40502;BME280;29631;49.168;9.848;2023-04-10T11:49:17;97000.31;;;20.01;64.73
40502;BME280;29631;49.168;9.848;2023-04-10T11:51:46;96988.81;;;20.00;64.74
40502;BME280;29631;49.168;9.848;2023-04-10T11:54:21;96985.91;;;20.07;64.49
40502;BME280;29631;49.168;9.848;2023-04-10T11:57:04;96984.84;;;20.08;64.56
40502;BME280;29631;49.168;9.848;2023-04-10T11:59:32;96973.69;;;20.21;64.86
40502;BME280;29631;49.168;9.848;2023-04-10T12:02:12;96971.78;;;20.16;64.56
40502;BME280;29631;49.168;9.848;2023-04-10T12:04:40;96977.53;;;20.30;64.26
40502;BME280;29631;49.168;9.848;2023-04-10T12:07:07;96979.69;;;20.38;64.07
40502;BME280;29631;49.168;9.848;2023-04-10T12:09:33;96996.41;;;20.49;64.01
40502;BME280;29631;49.168;9.848;2023-04-10T12:12:00;96998.59;;;20.57;63.50
40502;BME280;29631;49.168;9.848;2023-04-10T12:14:37;96990.78;;;20.51;63.55
40502;BME280;29631;49.168;9.848;2023-04-10T12:17:07;96975.47;;;20.46;63.84
40502;BME280;29631;49.168;9.848;2023-04-10T12:19:34;96960.94;;;20.38;63.56
40502;BME280;29631;49.168;9.848;2023-04-10T12:22:00;96974.19;;;20.54;63.43
40502;BME280;29631;49.168;9.848;2023-04-10T12:24:46;96968.06;;;20.63;62.76
40502;BME280;29631;49.168;9.848;2023-04-10T12:29:42;96937.50;;;20.54;63.27
40502;BME280;29631;49.168;9.848;2023-04-10T12:32:08;96925.16;;;20.53;62.53
40502;BME280;29631;49.168;9.848;2023-04-10T12:34:36;96954.75;;;20.73;62.68
40502;BME280;29631;49.168;9.848;2023-04-10T12:37:01;96937.59;;;20.69;62.74
40502;BME280;29631;49.168;9.848;2023-04-10T12:39:28;96952.66;;;20.80;62.20
40502;BME280;29631;49.168;9.848;2023-04-10T12:42:17;96921.84;;;20.78;61.59
40502;BME280;29631;49.168;9.848;2023-04-10T12:44:55;96939.84;;;20.92;62.20
40502;BME280;29631;49.168;9.848;2023-04-10T12:47:22;96918.13;;;20.99;62.50
40502;BME280;29631;49.168;9.848;2023-04-10T12:50:10;96914.38;;;21.00;62.56
40502;BME280;29631;49.168;9.848;2023-04-10T12:52:40;96912.53;;;21.05;62.52
40502;BME280;29631;49.168;9.848;2023-04-10T12:55:17;96912.81;;;21.09;61.79
40502;BME280;29631;49.168;9.848;2023-04-10T12:57:46;96903.69;;;21.05;61.61
40502;BME280;29631;49.168;9.848;2023-04-10T13:00:19;96915.22;;;21.10;61.59
40502;BME280;29631;49.168;9.848;2023-04-10T13:02:47;96918.97;;;21.09;61.83
40502;BME280;29631;49.168;9.848;2023-04-10T13:05:13;96903.94;;;21.03;61.50
40502;BME280;29631;49.168;9.848;2023-04-10T13:07:40;96908.78;;;21.06;60.62
40502;BME280;29631;49.168;9.848;2023-04-10T13:10:07;96902.31;;;21.02;60.63
40502;BME280;29631;49.168;9.848;2023-04-10T13:12:34;96894.03;;;21.04;61.07
40502;BME280;29631;49.168;9.848;2023-04-10T13:15:01;96884.94;;;21.05;60.87
40502;BME280;29631;49.168;9.848;2023-04-10T13:17:27;96887.34;;;21.11;60.69
40502;BME280;29631;49.168;9.848;2023-04-10T13:19:53;96882.81;;;21.17;60.91
40502;BME280;29631;49.168;9.848;2023-04-10T13:22:19;96875.00;;;21.15;61.12
40502;BME280;29631;49.168;9.848;2023-04-10T13:24:45;96853.00;;;21.03;60.79
40502;BME280;29631;49.168;9.848;2023-04-10T13:27:11;96848.19;;;21.05;60.54
40502;BME280;29631;49.168;9.848;2023-04-10T13:29:39;96864.81;;;21.17;60.41
40502;BME280;29631;49.168;9.848;2023-04-10T13:32:05;96880.41;;;21.25;60.48
40502;BME280;29631;49.168;9.848;2023-04-10T13:34:32;96860.53;;;21.16;60.02
40502;BME280;29631;49.168;9.848;2023-04-10T13:36:58;96864.56;;;21.14;60.19
40502;BME280;29631;49.168;9.848;2023-04-10T13:39:27;96861.88;;;21.14;60.11
40502;BME280;29631;49.168;9.848;2023-04-10T13:41:53;96868.06;;;21.19;60.07
40502;BME280;29631;49.168;9.848;2023-04-10T13:44:18;96823.78;;;21.02;59.93
40502;BME280;29631;49.168;9.848;2023-04-10T13:46:44;96854.38;;;21.20;59.72